Here is the Quick Look data you requested

The Data originates at the National Weather Service, and is made available here by the UAlbany Department of Atmospheric and Environmental Sciences

Surface Observations

KOXB 240453Z AUTO 00000KT 10SM CLR 19/18 A2990 RMK AO2 SLP124 T01940178
 403110194=
KOXB 240553Z AUTO 00000KT 7SM CLR 19/18 A2988 RMK AO2 SLP118 T01940178 10233
 20189 58008=
KOXB 240653Z AUTO 00000KT 6SM BR CLR 18/17 A2988 RMK AO2 SLP116 T01780167=
KOXB 240753Z AUTO 00000KT 5SM BR CLR 19/17 A2986 RMK AO2 SLP112 T01890172=
KOXB 240853Z AUTO 00000KT 7SM CLR 18/17 A2986 RMK AO2 SLP110 T01780167 57008=
KOXB 240953Z AUTO 21003KT 8SM CLR 19/18 A2987 RMK AO2 SLP115 T01940178=
KOXB 241053Z AUTO 00000KT 6SM BR FEW110 21/19 A2988 RMK AO2 SLP117 T02110194=
KOXB 241153Z AUTO 00000KT 10SM CLR 24/22 A2988 RMK AO2 LTG DSNT N AND NW SLP117
 70003 T02440217 10244 20172 51006=
KOXB 241253Z AUTO 00000KT 10SM SCT042 OVC070 24/20 A2988 RMK AO2 LTG DSNT N AND
 NW SLP119 T02390200=
KOXB 241312Z AUTO 00000KT 10SM VCTS SCT045 BKN070 25/21 A2988 RMK AO2 LTG DSNT
 N T02500211=
KOXB 241353Z AUTO 01008G19KT 10SM VCTS FEW014 FEW025 OVC037 23/19 A2989 RMK AO2
 LTG DSNT NW-NE SLP120 T02330189=
KOXB 241443Z AUTO 36007KT 10SM TS OVC045 22/19 A2991 RMK AO2 RAB17E35 TSB37
 P0001 T02220194=
KOXB 241453Z AUTO 03007KT 10SM TS FEW037 BKN045 OVC055 22/18 A2989 RMK AO2
 RAB17E35 TSB37 SLP122 P0001 60001 T02170183 51006=
KOXB 241506Z AUTO 35006G17KT 10SM -RA FEW037 SCT045 OVC055 22/18 A2989 RMK AO2
 RAB1454 TSE01 P0001 T02170183=
KOXB 241553Z AUTO 10005KT 10SM BKN065 BKN075 25/21 A2989 RMK AO2 LTG DSNT E-S
 RAB1454E17 TSE01 SLP119 P0001 T02500206=
KOXB 241653Z AUTO 10004KT 10SM BKN060 BKN085 23/19 A2988 RMK AO2 SLP118
 T02330189=
KOXB 241853Z AUTO 10005KT 10SM CLR 25/19 A2986 RMK AO2 LTG DSNT W SLP110
 T02500189=
KOXB 241953Z AUTO 14004KT 10SM CLR 24/19 A2986 RMK AO2 SLP110 T02440194=
KOXB 242053Z AUTO 14005KT 10SM CLR 23/19 A2984 RMK AO2 SLP106 T02280189 58008=
KOXB 242153Z AUTO 12004KT 10SM SCT120 23/19 A2985 RMK AO2 SLP109 T02280189=
KOXB 242253Z AUTO 19003KT 10SM OVC110 22/19 A2986 RMK AO2 SLP110 T02220189=
KOXB 242353Z AUTO 16003KT 9SM SCT120 21/18 A2984 RMK AO2 SLP105 T02110183 10261
 20211 58000=
KOXB 250053Z AUTO 00000KT 7SM CLR 20/18 A2984 RMK AO2 SLP106 T02000183=
KOXB 250153Z AUTO 20004KT 7SM CLR 20/18 A2987 RMK AO2 SLP116 T02000183=
KOXB 250253Z AUTO 21003KT 6SM BR CLR 21/19 A2987 RMK AO2 SLP116 T02060194 50010=
KOXB 250315Z AUTO 00000KT 1 3/4SM BR CLR 19/18 A2987 RMK AO2 T01890178=
KOXB 250324Z AUTO 00000KT 3SM BR CLR 19/18 A2987 RMK AO2 T01940183=
KOXB 250353Z AUTO 00000KT 2SM BR CLR 18/17 A2987 RMK AO2 SLP114 T01830167=
KOXB 250404Z AUTO 00000KT 1 3/4SM BR CLR 18/17 A2987 RMK AO2 T01780167=
KOXB 250410Z AUTO 00000KT 3SM BR CLR 19/17 A2987 RMK AO2 T01890172=
KOXB 250453Z AUTO 00000KT 5SM BR CLR 18/16 A2986 RMK AO2 SLP110 T01780161
 402610172=
KOXB 250513Z AUTO 00000KT 1 1/2SM BR CLR 17/15 A2987 RMK AO2 T01670150=
KOXB 250523Z AUTO 00000KT 3/4SM BR CLR 18/17 A2986 RMK AO2 T01830167=
KOXB 250528Z AUTO 00000KT 2SM BR CLR 19/18 A2987 RMK AO2 VIS 3/4V5 T01940178=
KOXB 250542Z AUTO 00000KT 1 1/4SM BR CLR 17/16 A2986 RMK AO2 T01720161=
KOXB 250553Z AUTO 00000KT 3/4SM BR CLR 19/17 A2986 RMK AO2 SLP111 T01890172
 10211 20167 55004=
KOXB 250600Z AUTO 00000KT 1SM BR VV003 19/17 A2986 RMK AO2 T01890172=
KOXB 250607Z AUTO 26003KT 2SM BR CLR 18/17 A2986 RMK AO2 T01830172=
KOXB 250616Z AUTO 00000KT 5SM BR CLR 17/16 A2985 RMK AO2 T01720161=
KOXB 250638Z AUTO 00000KT 1 1/2SM BR CLR 18/16 A2984 RMK AO2 T01780161=
KOXB 250653Z AUTO 00000KT 1/2SM FG VV003 18/17 A2984 RMK AO2 SLP105 T01780167=
KOXB 250737Z AUTO 23003KT 1 1/4SM BR SCT003 18/17 A2986 RMK AO2 VIS 1/2V4
 T01830167=
KOXB 250745Z AUTO 00000KT 3/4SM BR VV003 16/14 A2986 RMK AO2 T01560144=
KOXB 250753Z AUTO 00000KT 3/4SM BR VV003 16/14 A2986 RMK AO2 SLP110 T01560144=
KOXB 250814Z AUTO 35003KT 1 1/4SM BR OVC002 17/16 A2985 RMK AO2 VIS 1/2V5
 T01670156=
KOXB 250831Z AUTO 00000KT 1/2SM FG VV002 16/15 A2985 RMK AO2 T01610150=
KOXB 250853Z AUTO 14003KT 1 1/4SM BR BKN002 18/17 A2985 RMK AO2 SLP109
 T01780167 56002=
KOXB 250902Z AUTO 12003KT 3/4SM BR OVC002 18/17 A2985 RMK AO2 T01830167=
KOXB 250922Z AUTO 00000KT 2 1/2SM BR OVC001 18/17 A2986 RMK AO2 T01830167=
KOXB 250930Z AUTO 00000KT 3/4SM BR VV002 18/17 A2986 RMK AO2 T01830167=
KOXB 250943Z AUTO 00000KT 1/4SM FG VV002 18/17 A2986 RMK AO2 T01830172=
KOXB 250953Z AUTO 12003KT 1/4SM FG VV002 19/18 A2986 RMK AO2 SLP111 T01890178=
KOXB 251001Z AUTO 00000KT M1/4SM FG VV002 19/18 A2986 RMK AO2 T01890178=
KOXB 251051Z AUTO 00000KT 1/4SM FG VV001 19/18 A2986 RMK AO2=
KOXB 251053Z AUTO 00000KT 1/4SM FG VV002 19/18 A2986 RMK AO2 SLP110 T01940183=
KOXB 251119Z AUTO 00000KT 1SM BR VV002 20/19 A2987 RMK AO2 T02000189=
KOXB 251123Z AUTO 00000KT 3SM BR BKN002 20/19 A2987 RMK AO2 T02000189=